sensor_id;sensor_type;location;lat;lon;timestamp;temperature;humidity
24260;DHT22;12384;48.112;18.418;2023-01-09T00:01:28;5.90;99.90
24260;DHT22;12384;48.112;18.418;2023-01-09T00:03:57;6.00;99.90
24260;DHT22;12384;48.112;18.418;2023-01-09T00:06:25;6.00;99.90
24260;DHT22;12384;48.112;18.418;2023-01-09T00:08:55;6.10;99.90
24260;DHT22;12384;48.112;18.418;2023-01-09T00:11:24;6.10;99.90
24260;DHT22;12384;48.112;18.418;2023-01-09T00:13:52;6.20;99.90
24260;DHT22;12384;48.112;18.418;2023-01-09T00:16:21;6.30;99.90
24260;DHT22;12384;48.112;18.418;2023-01-09T00:18:49;6.30;99.90
24260;DHT22;12384;48.112;18.418;2023-01-09T00:21:19;6.40;99.90
24260;DHT22;12384;48.112;18.418;2023-01-09T00:23:48;6.40;99.90
24260;DHT22;12384;48.112;18.418;2023-01-09T00:26:18;6.50;99.90
24260;DHT22;12384;48.112;18.418;2023-01-09T00:28:48;6.60;99.90
24260;DHT22;12384;48.112;18.418;2023-01-09T00:31:17;6.60;99.90
24260;DHT22;12384;48.112;18.418;2023-01-09T00:33:49;6.70;99.90
24260;DHT22;12384;48.112;18.418;2023-01-09T00:36:18;6.70;99.90
24260;DHT22;12384;48.112;18.418;2023-01-09T00:38:46;6.70;99.90
24260;DHT22;12384;48.112;18.418;2023-01-09T00:41:18;6.80;99.90
24260;DHT22;12384;48.112;18.418;2023-01-09T00:43:50;6.80;99.90
24260;DHT22;12384;48.112;18.418;2023-01-09T00:46:20;6.90;99.90
24260;DHT22;12384;48.112;18.418;2023-01-09T00:48:52;6.90;99.90
24260;DHT22;12384;48.112;18.418;2023-01-09T00:51:20;6.90;99.90
24260;DHT22;12384;48.112;18.418;2023-01-09T00:53:50;7.00;99.90
24260;DHT22;12384;48.112;18.418;2023-01-09T00:56:21;7.00;99.90
24260;DHT22;12384;48.112;18.418;2023-01-09T00:58:50;7.00;99.90
24260;DHT22;12384;48.112;18.418;2023-01-09T01:01:19;7.00;99.90
24260;DHT22;12384;48.112;18.418;2023-01-09T01:03:47;7.00;99.90
24260;DHT22;12384;48.112;18.418;2023-01-09T01:06:16;7.00;99.90
24260;DHT22;12384;48.112;18.418;2023-01-09T01:09:01;7.00;99.90
24260;DHT22;12384;48.112;18.418;2023-01-09T01:11:32;7.00;99.90
24260;DHT22;12384;48.112;18.418;2023-01-09T01:14:01;7.10;99.90
24260;DHT22;12384;48.112;18.418;2023-01-09T01:16:29;7.10;99.90
24260;DHT22;12384;48.112;18.418;2023-01-09T01:18:57;7.10;99.90
24260;DHT22;12384;48.112;18.418;2023-01-09T01:21:26;7.10;99.90
24260;DHT22;12384;48.112;18.418;2023-01-09T01:23:54;7.10;99.90
24260;DHT22;12384;48.112;18.418;2023-01-09T01:26:22;7.20;99.90
24260;DHT22;12384;48.112;18.418;2023-01-09T01:28:52;7.20;99.90
24260;DHT22;12384;48.112;18.418;2023-01-09T01:31:20;7.20;99.90
24260;DHT22;12384;48.112;18.418;2023-01-09T01:33:49;7.30;99.90
24260;DHT22;12384;48.112;18.418;2023-01-09T01:36:17;7.30;99.90
24260;DHT22;12384;48.112;18.418;2023-01-09T01:38:45;7.40;99.90
24260;DHT22;12384;48.112;18.418;2023-01-09T01:41:14;7.40;99.90
24260;DHT22;12384;48.112;18.418;2023-01-09T01:43:58;7.40;99.90
24260;DHT22;12384;48.112;18.418;2023-01-09T01:46:27;7.50;99.90
24260;DHT22;12384;48.112;18.418;2023-01-09T01:48:59;7.50;99.90
24260;DHT22;12384;48.112;18.418;2023-01-09T01:51:30;7.50;99.90
24260;DHT22;12384;48.112;18.418;2023-01-09T01:54:02;7.50;99.90
24260;DHT22;12384;48.112;18.418;2023-01-09T01:56:40;7.50;99.90
24260;DHT22;12384;48.112;18.418;2023-01-09T01:59:17;7.60;99.90
24260;DHT22;12384;48.112;18.418;2023-01-09T02:01:48;7.60;99.90
24260;DHT22;12384;48.112;18.418;2023-01-09T02:04:18;7.60;99.90
24260;DHT22;12384;48.112;18.418;2023-01-09T02:06:50;7.60;99.90
24260;DHT22;12384;48.112;18.418;2023-01-09T02:09:20;7.70;99.90
24260;DHT22;12384;48.112;18.418;2023-01-09T02:11:55;7.70;99.90
24260;DHT22;12384;48.112;18.418;2023-01-09T02:14:26;7.80;99.90
24260;DHT22;12384;48.112;18.418;2023-01-09T02:17:00;7.80;99.90
24260;DHT22;12384;48.112;18.418;2023-01-09T02:22:35;7.90;99.90
24260;DHT22;12384;48.112;18.418;2023-01-09T02:28:37;7.90;99.90
24260;DHT22;12384;48.112;18.418;2023-01-09T02:31:13;8.00;99.90
24260;DHT22;12384;48.112;18.418;2023-01-09T02:33:51;8.00;99.90
24260;DHT22;12384;48.112;18.418;2023-01-09T02:36:27;8.00;99.90
24260;DHT22;12384;48.112;18.418;2023-01-09T02:39:06;8.10;99.90
24260;DHT22;12384;48.112;18.418;2023-01-09T02:41:42;8.10;99.90
24260;DHT22;12384;48.112;18.418;2023-01-09T02:44:17;8.10;99.90
24260;DHT22;12384;48.112;18.418;2023-01-09T02:46:59;8.20;99.90
24260;DHT22;12384;48.112;18.418;2023-01-09T02:49:28;8.20;99.90
24260;DHT22;12384;48.112;18.418;2023-01-09T02:52:05;8.20;99.90
24260;DHT22;12384;48.112;18.418;2023-01-09T02:54:45;8.20;99.90
24260;DHT22;12384;48.112;18.418;2023-01-09T02:57:41;8.10;99.90
24260;DHT22;12384;48.112;18.418;2023-01-09T03:00:23;8.10;99.90
24260;DHT22;12384;48.112;18.418;2023-01-09T03:02:57;8.10;99.90
24260;DHT22;12384;48.112;18.418;2023-01-09T03:05:33;8.00;99.90
24260;DHT22;12384;48.112;18.418;2023-01-09T03:08:05;8.00;99.90
24260;DHT22;12384;48.112;18.418;2023-01-09T03:10:38;7.90;99.90
24260;DHT22;12384;48.112;18.418;2023-01-09T03:13:10;7.90;99.90
24260;DHT22;12384;48.112;18.418;2023-01-09T03:15:43;7.90;99.90
24260;DHT22;12384;48.112;18.418;2023-01-09T03:18:15;7.90;99.90
24260;DHT22;12384;48.112;18.418;2023-01-09T03:20:46;7.80;99.90
24260;DHT22;12384;48.112;18.418;2023-01-09T03:23:15;7.80;99.90
24260;DHT22;12384;48.112;18.418;2023-01-09T03:25:44;7.70;99.90
24260;DHT22;12384;48.112;18.418;2023-01-09T03:28:20;7.70;99.90
24260;DHT22;12384;48.112;18.418;2023-01-09T03:30:50;7.60;99.90
24260;DHT22;12384;48.112;18.418;2023-01-09T03:33:20;7.60;99.90
24260;DHT22;12384;48.112;18.418;2023-01-09T03:35:48;7.60;99.90
24260;DHT22;12384;48.112;18.418;2023-01-09T03:38:17;7.60;99.90
24260;DHT22;12384;48.112;18.418;2023-01-09T03:40:45;7.60;99.90
24260;DHT22;12384;48.112;18.418;2023-01-09T03:43:13;7.60;99.90
24260;DHT22;12384;48.112;18.418;2023-01-09T03:45:42;7.60;99.90
24260;DHT22;12384;48.112;18.418;2023-01-09T03:48:10;7.50;99.90
24260;DHT22;12384;48.112;18.418;2023-01-09T03:50:40;7.50;99.90
24260;DHT22;12384;48.112;18.418;2023-01-09T03:53:11;7.50;99.90
24260;DHT22;12384;48.112;18.418;2023-01-09T03:55:44;7.50;99.90
24260;DHT22;12384;48.112;18.418;2023-01-09T03:58:12;7.50;99.90
24260;DHT22;12384;48.112;18.418;2023-01-09T04:00:41;7.50;99.90
24260;DHT22;12384;48.112;18.418;2023-01-09T04:03:12;7.50;99.90
24260;DHT22;12384;48.112;18.418;2023-01-09T04:05:42;7.50;99.90
24260;DHT22;12384;48.112;18.418;2023-01-09T04:08:11;7.50;99.90
24260;DHT22;12384;48.112;18.418;2023-01-09T04:10:42;7.50;99.90
24260;DHT22;12384;48.112;18.418;2023-01-09T04:13:11;7.50;99.90
24260;DHT22;12384;48.112;18.418;2023-01-09T04:15:39;7.50;99.90
24260;DHT22;12384;48.112;18.418;2023-01-09T04:18:08;7.50;99.90
24260;DHT22;12384;48.112;18.418;2023-01-09T04:20:37;7.50;99.90
24260;DHT22;12384;48.112;18.418;2023-01-09T04:23:06;7.50;99.90
24260;DHT22;12384;48.112;18.418;2023-01-09T04:25:35;7.50;99.90
24260;DHT22;12384;48.112;18.418;2023-01-09T04:28:03;7.50;99.90
24260;DHT22;12384;48.112;18.418;2023-01-09T04:30:32;7.50;99.90
24260;DHT22;12384;48.112;18.418;2023-01-09T04:33:01;7.50;99.90
24260;DHT22;12384;48.112;18.418;2023-01-09T04:35:29;7.50;99.90
24260;DHT22;12384;48.112;18.418;2023-01-09T04:37:58;7.50;99.90
24260;DHT22;12384;48.112;18.418;2023-01-09T04:40:28;7.60;99.90
24260;DHT22;12384;48.112;18.418;2023-01-09T04:42:56;7.50;99.90
24260;DHT22;12384;48.112;18.418;2023-01-09T04:45:24;7.50;99.90
24260;DHT22;12384;48.112;18.418;2023-01-09T04:47:53;7.60;99.90
24260;DHT22;12384;48.112;18.418;2023-01-09T04:50:21;7.60;99.90
24260;DHT22;12384;48.112;18.418;2023-01-09T04:52:49;7.50;99.90
24260;DHT22;12384;48.112;18.418;2023-01-09T04:55:18;7.50;99.90
24260;DHT22;12384;48.112;18.418;2023-01-09T04:57:47;7.50;99.90
24260;DHT22;12384;48.112;18.418;2023-01-09T05:00:16;7.60;99.90
24260;DHT22;12384;48.112;18.418;2023-01-09T05:02:44;7.60;99.90
24260;DHT22;12384;48.112;18.418;2023-01-09T05:05:13;7.50;99.90
24260;DHT22;12384;48.112;18.418;2023-01-09T05:07:41;7.60;99.90
24260;DHT22;12384;48.112;18.418;2023-01-09T05:10:11;7.60;99.90
24260;DHT22;12384;48.112;18.418;2023-01-09T05:12:40;7.60;99.90
24260;DHT22;12384;48.112;18.418;2023-01-09T05:15:10;7.60;99.90
24260;DHT22;12384;48.112;18.418;2023-01-09T05:17:39;7.60;99.90
24260;DHT22;12384;48.112;18.418;2023-01-09T05:20:07;7.60;99.90
24260;DHT22;12384;48.112;18.418;2023-01-09T05:22:36;7.60;99.90
24260;DHT22;12384;48.112;18.418;2023-01-09T05:25:05;7.60;99.90
24260;DHT22;12384;48.112;18.418;2023-01-09T05:27:33;7.60;99.90
24260;DHT22;12384;48.112;18.418;2023-01-09T05:30:01;7.60;99.90
24260;DHT22;12384;48.112;18.418;2023-01-09T05:32:31;7.60;99.90
24260;DHT22;12384;48.112;18.418;2023-01-09T05:35:00;7.60;99.90
24260;DHT22;12384;48.112;18.418;2023-01-09T05:37:28;7.60;99.90
24260;DHT22;12384;48.112;18.418;2023-01-09T05:39:56;7.60;99.90
24260;DHT22;12384;48.112;18.418;2023-01-09T05:42:25;7.60;99.90
24260;DHT22;12384;48.112;18.418;2023-01-09T05:44:53;7.60;99.90
24260;DHT22;12384;48.112;18.418;2023-01-09T05:47:21;7.60;99.90
24260;DHT22;12384;48.112;18.418;2023-01-09T05:49:51;7.60;99.90
24260;DHT22;12384;48.112;18.418;2023-01-09T05:52:22;7.60;99.90
24260;DHT22;12384;48.112;18.418;2023-01-09T05:54:51;7.60;99.90
24260;DHT22;12384;48.112;18.418;2023-01-09T05:57:19;7.60;99.90
24260;DHT22;12384;48.112;18.418;2023-01-09T05:59:47;7.70;99.90
24260;DHT22;12384;48.112;18.418;2023-01-09T06:02:16;7.70;99.90
24260;DHT22;12384;48.112;18.418;2023-01-09T06:04:44;7.70;99.90
24260;DHT22;12384;48.112;18.418;2023-01-09T06:07:14;7.70;99.90
24260;DHT22;12384;48.112;18.418;2023-01-09T06:09:48;7.70;99.90
24260;DHT22;12384;48.112;18.418;2023-01-09T06:12:16;7.70;99.90
24260;DHT22;12384;48.112;18.418;2023-01-09T06:14:44;7.70;99.90
24260;DHT22;12384;48.112;18.418;2023-01-09T06:17:13;7.70;99.90
24260;DHT22;12384;48.112;18.418;2023-01-09T06:19:41;7.70;99.90
24260;DHT22;12384;48.112;18.418;2023-01-09T06:22:10;7.80;99.90
24260;DHT22;12384;48.112;18.418;2023-01-09T06:24:39;7.80;99.90
24260;DHT22;12384;48.112;18.418;2023-01-09T06:27:08;7.80;99.90
24260;DHT22;12384;48.112;18.418;2023-01-09T06:29:38;7.80;99.90
24260;DHT22;12384;48.112;18.418;2023-01-09T06:32:07;7.80;99.90
24260;DHT22;12384;48.112;18.418;2023-01-09T06:34:35;7.80;99.90
24260;DHT22;12384;48.112;18.418;2023-01-09T06:37:03;7.70;99.90
24260;DHT22;12384;48.112;18.418;2023-01-09T06:39:31;7.80;99.90
24260;DHT22;12384;48.112;18.418;2023-01-09T06:42:01;7.70;99.90
24260;DHT22;12384;48.112;18.418;2023-01-09T06:44:30;7.70;99.90
24260;DHT22;12384;48.112;18.418;2023-01-09T06:46:59;7.70;99.90
24260;DHT22;12384;48.112;18.418;2023-01-09T06:49:27;7.60;99.90
24260;DHT22;12384;48.112;18.418;2023-01-09T06:51:55;7.70;99.90
24260;DHT22;12384;48.112;18.418;2023-01-09T06:54:24;7.60;99.90
24260;DHT22;12384;48.112;18.418;2023-01-09T06:56:54;7.60;99.90
24260;DHT22;12384;48.112;18.418;2023-01-09T06:59:24;7.60;99.90
24260;DHT22;12384;48.112;18.418;2023-01-09T07:01:52;7.60;99.90
24260;DHT22;12384;48.112;18.418;2023-01-09T07:04:21;7.60;99.90
24260;DHT22;12384;48.112;18.418;2023-01-09T07:06:49;7.60;99.90
24260;DHT22;12384;48.112;18.418;2023-01-09T07:09:17;7.50;99.90
24260;DHT22;12384;48.112;18.418;2023-01-09T07:11:46;7.50;99.90
24260;DHT22;12384;48.112;18.418;2023-01-09T07:14:14;7.50;99.90
24260;DHT22;12384;48.112;18.418;2023-01-09T07:16:45;7.50;99.90
24260;DHT22;12384;48.112;18.418;2023-01-09T07:19:13;7.50;99.90
24260;DHT22;12384;48.112;18.418;2023-01-09T07:21:42;7.50;99.90
24260;DHT22;12384;48.112;18.418;2023-01-09T07:24:10;7.50;99.90
24260;DHT22;12384;48.112;18.418;2023-01-09T07:26:39;7.50;99.90
24260;DHT22;12384;48.112;18.418;2023-01-09T07:29:09;7.50;99.90
24260;DHT22;12384;48.112;18.418;2023-01-09T07:31:39;7.50;99.90
24260;DHT22;12384;48.112;18.418;2023-01-09T07:34:08;7.50;99.90
24260;DHT22;12384;48.112;18.418;2023-01-09T07:36:37;7.50;99.90
24260;DHT22;12384;48.112;18.418;2023-01-09T07:39:05;7.50;99.90
24260;DHT22;12384;48.112;18.418;2023-01-09T07:41:35;7.50;99.90
24260;DHT22;12384;48.112;18.418;2023-01-09T07:44:07;7.50;99.90
24260;DHT22;12384;48.112;18.418;2023-01-09T07:46:37;7.50;99.90
24260;DHT22;12384;48.112;18.418;2023-01-09T07:49:07;7.50;99.90
24260;DHT22;12384;48.112;18.418;2023-01-09T07:51:36;7.50;99.90
24260;DHT22;12384;48.112;18.418;2023-01-09T07:54:09;7.50;99.90
24260;DHT22;12384;48.112;18.418;2023-01-09T07:56:37;7.50;99.90
24260;DHT22;12384;48.112;18.418;2023-01-09T07:59:06;7.50;99.90
24260;DHT22;12384;48.112;18.418;2023-01-09T08:01:34;7.50;99.90
24260;DHT22;12384;48.112;18.418;2023-01-09T08:04:03;7.50;99.90
24260;DHT22;12384;48.112;18.418;2023-01-09T08:06:32;7.50;99.90
24260;DHT22;12384;48.112;18.418;2023-01-09T08:09:01;7.50;99.90
24260;DHT22;12384;48.112;18.418;2023-01-09T08:11:29;7.50;99.90
24260;DHT22;12384;48.112;18.418;2023-01-09T08:13:58;7.50;99.90
24260;DHT22;12384;48.112;18.418;2023-01-09T08:16:27;7.50;99.90
24260;DHT22;12384;48.112;18.418;2023-01-09T08:18:55;7.50;99.90
24260;DHT22;12384;48.112;18.418;2023-01-09T08:21:23;7.50;99.90
24260;DHT22;12384;48.112;18.418;2023-01-09T08:23:53;7.50;99.90
24260;DHT22;12384;48.112;18.418;2023-01-09T08:26:21;7.40;99.90
24260;DHT22;12384;48.112;18.418;2023-01-09T08:28:50;7.50;99.90
24260;DHT22;12384;48.112;18.418;2023-01-09T08:31:18;7.40;99.90
24260;DHT22;12384;48.112;18.418;2023-01-09T08:33:47;7.40;99.90
24260;DHT22;12384;48.112;18.418;2023-01-09T08:36:15;7.40;99.90
24260;DHT22;12384;48.112;18.418;2023-01-09T08:38:44;7.40;99.90
24260;DHT22;12384;48.112;18.418;2023-01-09T08:41:13;7.30;99.90
24260;DHT22;12384;48.112;18.418;2023-01-09T08:43:59;7.30;99.90
24260;DHT22;12384;48.112;18.418;2023-01-09T08:46:45;7.30;99.90
24260;DHT22;12384;48.112;18.418;2023-01-09T08:49:31;7.30;99.90
24260;DHT22;12384;48.112;18.418;2023-01-09T08:52:00;7.30;99.90
24260;DHT22;12384;48.112;18.418;2023-01-09T08:54:28;7.30;99.90
24260;DHT22;12384;48.112;18.418;2023-01-09T08:56:58;7.30;99.90
24260;DHT22;12384;48.112;18.418;2023-01-09T08:59:27;7.30;99.90
24260;DHT22;12384;48.112;18.418;2023-01-09T09:01:55;7.30;99.90
24260;DHT22;12384;48.112;18.418;2023-01-09T09:04:24;7.30;99.90
24260;DHT22;12384;48.112;18.418;2023-01-09T09:06:53;7.40;99.90
24260;DHT22;12384;48.112;18.418;2023-01-09T09:09:21;7.40;99.90
24260;DHT22;12384;48.112;18.418;2023-01-09T09:11:51;7.40;99.90
24260;DHT22;12384;48.112;18.418;2023-01-09T09:14:21;7.40;99.90
24260;DHT22;12384;48.112;18.418;2023-01-09T09:17:07;7.40;99.90
24260;DHT22;12384;48.112;18.418;2023-01-09T09:19:35;7.40;99.90
24260;DHT22;12384;48.112;18.418;2023-01-09T09:22:05;7.40;99.90
24260;DHT22;12384;48.112;18.418;2023-01-09T09:24:34;7.40;99.90
24260;DHT22;12384;48.112;18.418;2023-01-09T09:27:03;7.40;99.90
24260;DHT22;12384;48.112;18.418;2023-01-09T09:29:33;7.40;99.90
24260;DHT22;12384;48.112;18.418;2023-01-09T09:32:02;7.50;99.90
24260;DHT22;12384;48.112;18.418;2023-01-09T09:34:30;7.50;99.90
24260;DHT22;12384;48.112;18.418;2023-01-09T09:36:59;7.50;99.90
24260;DHT22;12384;48.112;18.418;2023-01-09T09:39:28;7.50;99.90
24260;DHT22;12384;48.112;18.418;2023-01-09T09:42:08;7.50;99.90
24260;DHT22;12384;48.112;18.418;2023-01-09T09:45:09;7.50;99.90
24260;DHT22;12384;48.112;18.418;2023-01-09T09:47:48;7.50;99.90
24260;DHT22;12384;48.112;18.418;2023-01-09T09:50:45;7.50;99.90
24260;DHT22;12384;48.112;18.418;2023-01-09T09:53:20;7.50;99.90
24260;DHT22;12384;48.112;18.418;2023-01-09T09:55:51;7.50;99.90
24260;DHT22;12384;48.112;18.418;2023-01-09T09:58:23;7.50;99.90
24260;DHT22;12384;48.112;18.418;2023-01-09T10:00:57;7.50;99.90
24260;DHT22;12384;48.112;18.418;2023-01-09T10:03:30;7.50;99.90
24260;DHT22;12384;48.112;18.418;2023-01-09T10:06:04;7.50;99.90
24260;DHT22;12384;48.112;18.418;2023-01-09T10:08:40;7.50;99.90
24260;DHT22;12384;48.112;18.418;2023-01-09T10:11:16;7.50;99.90
24260;DHT22;12384;48.112;18.418;2023-01-09T10:13:46;7.50;99.90
24260;DHT22;12384;48.112;18.418;2023-01-09T10:17:05;7.50;99.90
24260;DHT22;12384;48.112;18.418;2023-01-09T10:22:38;7.50;99.90
24260;DHT22;12384;48.112;18.418;2023-01-09T10:25:21;7.40;99.90
24260;DHT22;12384;48.112;18.418;2023-01-09T10:28:01;7.50;99.90
24260;DHT22;12384;48.112;18.418;2023-01-09T10:30:38;7.40;99.90
24260;DHT22;12384;48.112;18.418;2023-01-09T10:33:25;7.40;99.90
24260;DHT22;12384;48.112;18.418;2023-01-09T10:36:37;7.40;99.90
24260;DHT22;12384;48.112;18.418;2023-01-09T10:39:14;7.50;99.90
24260;DHT22;12384;48.112;18.418;2023-01-09T10:41:51;7.40;99.90
24260;DHT22;12384;48.112;18.418;2023-01-09T10:44:25;7.40;99.90
24260;DHT22;12384;48.112;18.418;2023-01-09T10:47:00;7.50;99.90
24260;DHT22;12384;48.112;18.418;2023-01-09T10:49:31;7.40;99.90
24260;DHT22;12384;48.112;18.418;2023-01-09T10:52:10;7.50;99.90
24260;DHT22;12384;48.112;18.418;2023-01-09T10:54:48;7.50;99.90
24260;DHT22;12384;48.112;18.418;2023-01-09T11:00:16;7.50;99.90
24260;DHT22;12384;48.112;18.418;2023-01-09T11:02:49;7.50;99.90
24260;DHT22;12384;48.112;18.418;2023-01-09T11:05:21;7.40;99.90
24260;DHT22;12384;48.112;18.418;2023-01-09T11:07:54;7.40;99.90
24260;DHT22;12384;48.112;18.418;2023-01-09T11:10:43;7.50;99.90
24260;DHT22;12384;48.112;18.418;2023-01-09T11:13:16;7.40;99.90
24260;DHT22;12384;48.112;18.418;2023-01-09T11:15:47;7.40;99.90
24260;DHT22;12384;48.112;18.418;2023-01-09T11:18:26;7.40;99.90
24260;DHT22;12384;48.112;18.418;2023-01-09T11:21:11;7.40;99.90
24260;DHT22;12384;48.112;18.418;2023-01-09T11:23:40;7.40;99.90
24260;DHT22;12384;48.112;18.418;2023-01-09T11:26:22;7.30;99.90
24260;DHT22;12384;48.112;18.418;2023-01-09T11:29:06;7.40;99.90
24260;DHT22;12384;48.112;18.418;2023-01-09T11:31:35;7.40;99.90
24260;DHT22;12384;48.112;18.418;2023-01-09T11:34:05;7.40;99.90
24260;DHT22;12384;48.112;18.418;2023-01-09T11:36:36;7.40;99.90
24260;DHT22;12384;48.112;18.418;2023-01-09T11:39:05;7.40;99.90
24260;DHT22;12384;48.112;18.418;2023-01-09T11:41:43;7.40;99.90
24260;DHT22;12384;48.112;18.418;2023-01-09T11:44:15;7.40;99.90
24260;DHT22;12384;48.112;18.418;2023-01-09T11:46:44;7.40;99.90
24260;DHT22;12384;48.112;18.418;2023-01-09T11:49:21;7.40;99.90
24260;DHT22;12384;48.112;18.418;2023-01-09T11:52:15;7.40;99.90
24260;DHT22;12384;48.112;18.418;2023-01-09T11:54:48;7.40;99.90
24260;DHT22;12384;48.112;18.418;2023-01-09T11:57:19;7.40;99.90
24260;DHT22;12384;48.112;18.418;2023-01-09T11:59:49;7.40;99.90
24260;DHT22;12384;48.112;18.418;2023-01-09T12:02:50;7.40;99.90
24260;DHT22;12384;48.112;18.418;2023-01-09T12:05:30;7.40;99.90
24260;DHT22;12384;48.112;18.418;2023-01-09T12:08:25;7.40;99.90
24260;DHT22;12384;48.112;18.418;2023-01-09T12:11:08;7.40;99.90
24260;DHT22;12384;48.112;18.418;2023-01-09T12:13:55;7.40;99.90
24260;DHT22;12384;48.112;18.418;2023-01-09T12:16:30;7.50;99.90
24260;DHT22;12384;48.112;18.418;2023-01-09T12:19:17;7.50;99.90
24260;DHT22;12384;48.112;18.418;2023-01-09T12:21:57;7.50;99.90
24260;DHT22;12384;48.112;18.418;2023-01-09T12:24:44;7.40;99.90
24260;DHT22;12384;48.112;18.418;2023-01-09T12:27:25;7.40;99.90
24260;DHT22;12384;48.112;18.418;2023-01-09T12:30:16;7.40;99.90
24260;DHT22;12384;48.112;18.418;2023-01-09T12:32:56;7.40;99.90
24260;DHT22;12384;48.112;18.418;2023-01-09T12:35:34;7.40;99.90
24260;DHT22;12384;48.112;18.418;2023-01-09T12:38:22;7.40;99.90
24260;DHT22;12384;48.112;18.418;2023-01-09T12:41:15;7.40;99.90
24260;DHT22;12384;48.112;18.418;2023-01-09T12:44:02;7.40;99.90
24260;DHT22;12384;48.112;18.418;2023-01-09T12:46:38;7.30;99.90
24260;DHT22;12384;48.112;18.418;2023-01-09T12:49:25;7.30;99.90
24260;DHT22;12384;48.112;18.418;2023-01-09T12:52:01;7.30;99.90
24260;DHT22;12384;48.112;18.418;2023-01-09T12:54:36;7.30;99.90
24260;DHT22;12384;48.112;18.418;2023-01-09T12:57:13;7.30;99.90
24260;DHT22;12384;48.112;18.418;2023-01-09T12:59:46;7.30;99.90
24260;DHT22;12384;48.112;18.418;2023-01-09T13:02:22;7.30;99.90
24260;DHT22;12384;48.112;18.418;2023-01-09T13:04:57;7.30;99.90
24260;DHT22;12384;48.112;18.418;2023-01-09T13:07:29;7.30;99.90
24260;DHT22;12384;48.112;18.418;2023-01-09T13:10:08;7.30;99.90
24260;DHT22;12384;48.112;18.418;2023-01-09T13:12:44;7.30;99.90
24260;DHT22;12384;48.112;18.418;2023-01-09T13:15:24;7.30;99.90
24260;DHT22;12384;48.112;18.418;2023-01-09T13:17:57;7.30;99.90
24260;DHT22;12384;48.112;18.418;2023-01-09T13:20:33;7.20;99.90
24260;DHT22;12384;48.112;18.418;2023-01-09T13:23:04;7.30;99.90
24260;DHT22;12384;48.112;18.418;2023-01-09T13:25:38;7.30;99.90
24260;DHT22;12384;48.112;18.418;2023-01-09T13:28:15;7.30;99.90
24260;DHT22;12384;48.112;18.418;2023-01-09T13:31:09;7.20;99.90
24260;DHT22;12384;48.112;18.418;2023-01-09T13:33:43;7.20;99.90
24260;DHT22;12384;48.112;18.418;2023-01-09T13:36:22;7.30;99.90
24260;DHT22;12384;48.112;18.418;2023-01-09T13:38:53;7.30;99.90
24260;DHT22;12384;48.112;18.418;2023-01-09T13:41:23;7.30;99.90
24260;DHT22;12384;48.112;18.418;2023-01-09T13:44:26;7.30;99.90
24260;DHT22;12384;48.112;18.418;2023-01-09T13:46:57;7.30;99.90
24260;DHT22;12384;48.112;18.418;2023-01-09T13:52:29;7.30;99.90
24260;DHT22;12384;48.112;18.418;2023-01-09T13:55:00;7.30;99.90
24260;DHT22;12384;48.112;18.418;2023-01-09T13:57:31;7.30;99.90
24260;DHT22;12384;48.112;18.418;2023-01-09T14:03:21;7.30;99.90
24260;DHT22;12384;48.112;18.418;2023-01-09T14:06:16;7.30;99.90
24260;DHT22;12384;48.112;18.418;2023-01-09T14:08:47;7.40;99.90
24260;DHT22;12384;48.112;18.418;2023-01-09T14:11:22;7.40;99.90
24260;DHT22;12384;48.112;18.418;2023-01-09T14:14:03;7.40;99.90
24260;DHT22;12384;48.112;18.418;2023-01-09T14:16:34;7.40;99.90
24260;DHT22;12384;48.112;18.418;2023-01-09T14:19:20;7.50;99.90
24260;DHT22;12384;48.112;18.418;2023-01-09T14:21:53;7.50;99.90
24260;DHT22;12384;48.112;18.418;2023-01-09T14:24:25;7.50;99.90
24260;DHT22;12384;48.112;18.418;2023-01-09T14:26:56;7.50;99.90
24260;DHT22;12384;48.112;18.418;2023-01-09T14:29:42;7.50;99.90
24260;DHT22;12384;48.112;18.418;2023-01-09T14:35:24;7.60;99.90
24260;DHT22;12384;48.112;18.418;2023-01-09T14:38:21;7.60;99.90
24260;DHT22;12384;48.112;18.418;2023-01-09T14:40:55;7.60;99.90
24260;DHT22;12384;48.112;18.418;2023-01-09T14:43:32;7.60;99.90
24260;DHT22;12384;48.112;18.418;2023-01-09T14:46:11;7.60;99.90
24260;DHT22;12384;48.112;18.418;2023-01-09T14:51:30;7.60;99.90
24260;DHT22;12384;48.112;18.418;2023-01-09T14:54:20;7.60;99.90
24260;DHT22;12384;48.112;18.418;2023-01-09T14:56:50;7.60;99.90
24260;DHT22;12384;48.112;18.418;2023-01-09T14:59:20;7.60;99.90
24260;DHT22;12384;48.112;18.418;2023-01-09T15:01:50;7.60;99.90
24260;DHT22;12384;48.112;18.418;2023-01-09T15:04:28;7.60;99.90
24260;DHT22;12384;48.112;18.418;2023-01-09T15:07:03;7.60;99.90
24260;DHT22;12384;48.112;18.418;2023-01-09T15:09:37;7.60;99.90
24260;DHT22;12384;48.112;18.418;2023-01-09T15:12:15;7.50;99.90
24260;DHT22;12384;48.112;18.418;2023-01-09T15:14:45;7.60;99.90
24260;DHT22;12384;48.112;18.418;2023-01-09T15:17:19;7.50;99.90
24260;DHT22;12384;48.112;18.418;2023-01-09T15:19:49;7.60;99.90
24260;DHT22;12384;48.112;18.418;2023-01-09T15:22:27;7.60;99.90
24260;DHT22;12384;48.112;18.418;2023-01-09T15:24:57;7.60;99.90
24260;DHT22;12384;48.112;18.418;2023-01-09T15:27:26;7.60;99.90
24260;DHT22;12384;48.112;18.418;2023-01-09T15:30:14;7.60;99.90
24260;DHT22;12384;48.112;18.418;2023-01-09T15:32:44;7.60;99.90
24260;DHT22;12384;48.112;18.418;2023-01-09T15:35:14;7.60;99.90
24260;DHT22;12384;48.112;18.418;2023-01-09T15:37:45;7.60;99.90
24260;DHT22;12384;48.112;18.418;2023-01-09T15:40:18;7.60;99.90
24260;DHT22;12384;48.112;18.418;2023-01-09T15:42:51;7.60;99.90
24260;DHT22;12384;48.112;18.418;2023-01-09T15:45:26;7.60;99.90
24260;DHT22;12384;48.112;18.418;2023-01-09T15:48:13;7.60;99.90
24260;DHT22;12384;48.112;18.418;2023-01-09T15:50:43;7.70;99.90
24260;DHT22;12384;48.112;18.418;2023-01-09T15:53:16;7.60;99.90
24260;DHT22;12384;48.112;18.418;2023-01-09T15:56:01;7.60;99.90
24260;DHT22;12384;48.112;18.418;2023-01-09T15:58:33;7.70;99.90
24260;DHT22;12384;48.112;18.418;2023-01-09T16:01:05;7.60;99.90
24260;DHT22;12384;48.112;18.418;2023-01-09T16:03:35;7.60;99.90
24260;DHT22;12384;48.112;18.418;2023-01-09T16:06:07;7.60;99.90
24260;DHT22;12384;48.112;18.418;2023-01-09T16:08:40;7.60;99.90
24260;DHT22;12384;48.112;18.418;2023-01-09T16:11:20;7.60;99.90
24260;DHT22;12384;48.112;18.418;2023-01-09T16:13:50;7.60;99.90
24260;DHT22;12384;48.112;18.418;2023-01-09T16:16:27;7.60;99.90
24260;DHT22;12384;48.112;18.418;2023-01-09T16:18:58;7.60;99.90
24260;DHT22;12384;48.112;18.418;2023-01-09T16:21:32;7.60;99.90
24260;DHT22;12384;48.112;18.418;2023-01-09T16:24:21;7.60;99.90
24260;DHT22;12384;48.112;18.418;2023-01-09T16:26:52;7.50;99.90
24260;DHT22;12384;48.112;18.418;2023-01-09T16:29:40;7.50;99.90
24260;DHT22;12384;48.112;18.418;2023-01-09T16:32:17;7.50;99.90